sensor_id;sensor_type;location;lat;lon;timestamp;pressure;altitude;pressure_sealevel;temperature;humidity
20624;BME280;10471;42.736;23.346;2023-01-27T00:01:30;94755.50;;;1.50;100.00
20624;BME280;10471;42.736;23.346;2023-01-27T00:03:55;94754.69;;;1.49;100.00
20624;BME280;10471;42.736;23.346;2023-01-27T00:06:20;94754.38;;;1.46;100.00
20624;BME280;10471;42.736;23.346;2023-01-27T00:08:46;94755.97;;;1.47;100.00
20624;BME280;10471;42.736;23.346;2023-01-27T00:11:11;94758.16;;;1.38;100.00
20624;BME280;10471;42.736;23.346;2023-01-27T00:13:55;94743.72;;;1.42;100.00
20624;BME280;10471;42.736;23.346;2023-01-27T00:16:20;94749.34;;;1.39;100.00
20624;BME280;10471;42.736;23.346;2023-01-27T00:18:46;94738.41;;;1.37;100.00
20624;BME280;10471;42.736;23.346;2023-01-27T00:21:11;94744.16;;;1.39;100.00
20624;BME280;10471;42.736;23.346;2023-01-27T00:23:55;94734.19;;;1.31;100.00
20624;BME280;10471;42.736;23.346;2023-01-27T00:26:39;94732.03;;;1.28;100.00
20624;BME280;10471;42.736;23.346;2023-01-27T00:29:04;94724.34;;;1.33;100.00
20624;BME280;10471;42.736;23.346;2023-01-27T00:31:30;94710.66;;;1.38;100.00
20624;BME280;10471;42.736;23.346;2023-01-27T00:34:14;94719.16;;;1.33;100.00
20624;BME280;10471;42.736;23.346;2023-01-27T00:36:40;94719.16;;;1.33;100.00
20624;BME280;10471;42.736;23.346;2023-01-27T00:39:07;94718.22;;;1.39;100.00
20624;BME280;10471;42.736;23.346;2023-01-27T00:41:33;94721.81;;;1.22;100.00
20624;BME280;10471;42.736;23.346;2023-01-27T00:43:59;94718.53;;;1.27;100.00
20624;BME280;10471;42.736;23.346;2023-01-27T00:46:25;94715.03;;;1.21;100.00
20624;BME280;10471;42.736;23.346;2023-01-27T00:48:51;94720.47;;;1.20;100.00
20624;BME280;10471;42.736;23.346;2023-01-27T00:51:17;94717.31;;;1.18;100.00
20624;BME280;10471;42.736;23.346;2023-01-27T00:53:43;94728.81;;;1.22;100.00
20624;BME280;10471;42.736;23.346;2023-01-27T00:56:09;94734.53;;;1.24;100.00
20624;BME280;10471;42.736;23.346;2023-01-27T00:58:35;94728.34;;;1.25;100.00
20624;BME280;10471;42.736;23.346;2023-01-27T01:01:03;94727.84;;;1.27;100.00
20624;BME280;10471;42.736;23.346;2023-01-27T01:03:30;94724.34;;;1.33;100.00
20624;BME280;10471;42.736;23.346;2023-01-27T01:06:01;94728.13;;;1.42;100.00
20624;BME280;10471;42.736;23.346;2023-01-27T01:08:27;94722.47;;;1.45;100.00
20624;BME280;10471;42.736;23.346;2023-01-27T01:10:52;94720.97;;;1.49;100.00
20624;BME280;10471;42.736;23.346;2023-01-27T01:13:18;94722.78;;;1.49;100.00
20624;BME280;10471;42.736;23.346;2023-01-27T01:15:44;94718.53;;;1.43;100.00
20624;BME280;10471;42.736;23.346;2023-01-27T01:18:10;94712.56;;;1.42;100.00
20624;BME280;10471;42.736;23.346;2023-01-27T01:20:41;94727.66;;;1.45;100.00
20624;BME280;10471;42.736;23.346;2023-01-27T01:23:07;94720.19;;;1.49;100.00
20624;BME280;10471;42.736;23.346;2023-01-27T01:25:33;94714.00;;;1.50;100.00
20624;BME280;10471;42.736;23.346;2023-01-27T01:27:59;94717.75;;;1.42;100.00
20624;BME280;10471;42.736;23.346;2023-01-27T01:30:25;94731.44;;;1.38;100.00
20624;BME280;10471;42.736;23.346;2023-01-27T01:32:54;94724.50;;;1.43;100.00
20624;BME280;10471;42.736;23.346;2023-01-27T01:35:21;94712.56;;;1.42;100.00
20624;BME280;10471;42.736;23.346;2023-01-27T01:37:47;94719.00;;;1.40;100.00
20624;BME280;10471;42.736;23.346;2023-01-27T01:40:13;94729.53;;;1.33;100.00
20624;BME280;10471;42.736;23.346;2023-01-27T01:43:05;94730.78;;;1.31;100.00
20624;BME280;10471;42.736;23.346;2023-01-27T01:48:08;94741.31;;;1.25;100.00
20624;BME280;10471;42.736;23.346;2023-01-27T01:50:36;94745.09;;;1.33;100.00
20624;BME280;10471;42.736;23.346;2023-01-27T01:53:05;94729.69;;;1.43;100.00
20624;BME280;10471;42.736;23.346;2023-01-27T01:55:32;94730.94;;;1.41;100.00
20624;BME280;10471;42.736;23.346;2023-01-27T01:57:59;94726.06;;;1.44;100.00
20624;BME280;10471;42.736;23.346;2023-01-27T02:00:25;94718.78;;;1.41;100.00
20624;BME280;10471;42.736;23.346;2023-01-27T02:02:51;94700.53;;;1.36;100.00
20624;BME280;10471;42.736;23.346;2023-01-27T02:05:24;94714.44;;;1.30;100.00
20624;BME280;10471;42.736;23.346;2023-01-27T02:08:02;94703.31;;;1.19;100.00
20624;BME280;10471;42.736;23.346;2023-01-27T02:10:31;94692.94;;;1.19;100.00
20624;BME280;10471;42.736;23.346;2023-01-27T02:12:57;94683.66;;;1.06;100.00
20624;BME280;10471;42.736;23.346;2023-01-27T02:15:22;94679.16;;;1.02;100.00
20624;BME280;10471;42.736;23.346;2023-01-27T02:17:48;94673.53;;;1.05;100.00
20624;BME280;10471;42.736;23.346;2023-01-27T02:26:27;94658.25;;;0.92;100.00
20624;BME280;10471;42.736;23.346;2023-01-27T02:28:33;94645.84;;;0.94;100.00
20624;BME280;10471;42.736;23.346;2023-01-27T02:30:58;94647.44;;;0.95;100.00
20624;BME280;10471;42.736;23.346;2023-01-27T02:33:24;94646.88;;;0.93;100.00
20624;BME280;10471;42.736;23.346;2023-01-27T02:36:11;94645.84;;;0.94;100.00
20624;BME280;10471;42.736;23.346;2023-01-27T02:38:41;94652.38;;;0.96;100.00
20624;BME280;10471;42.736;23.346;2023-01-27T02:41:13;94659.91;;;0.98;100.00
20624;BME280;10471;42.736;23.346;2023-01-27T02:43:40;94639.25;;;1.03;100.00
20624;BME280;10471;42.736;23.346;2023-01-27T02:46:06;94648.69;;;1.09;100.00
20624;BME280;10471;42.736;23.346;2023-01-27T02:48:31;94650.53;;;1.08;100.00
20624;BME280;10471;42.736;23.346;2023-01-27T02:50:56;94654.81;;;1.03;100.00
20624;BME280;10471;42.736;23.346;2023-01-27T02:53:22;94662.69;;;1.08;100.00
20624;BME280;10471;42.736;23.346;2023-01-27T02:55:47;94672.13;;;1.14;100.00
20624;BME280;10471;42.736;23.346;2023-01-27T02:58:12;94660.81;;;1.20;100.00
20624;BME280;10471;42.736;23.346;2023-01-27T03:00:41;94670.63;;;1.18;100.00
20624;BME280;10471;42.736;23.346;2023-01-27T03:03:07;94655.63;;;1.20;100.00
20624;BME280;10471;42.736;23.346;2023-01-27T03:05:32;94657.53;;;1.24;100.00
20624;BME280;10471;42.736;23.346;2023-01-27T03:07:58;94658.31;;;1.25;100.00
20624;BME280;10471;42.736;23.346;2023-01-27T03:10:23;94656.72;;;1.24;100.00
20624;BME280;10471;42.736;23.346;2023-01-27T03:12:49;94653.13;;;1.25;100.00
20624;BME280;10471;42.736;23.346;2023-01-27T03:15:14;94648.78;;;1.30;100.00
20624;BME280;10471;42.736;23.346;2023-01-27T03:18:09;94644.84;;;1.27;100.00
20624;BME280;10471;42.736;23.346;2023-01-27T03:20:41;94637.53;;;1.25;100.00
20624;BME280;10471;42.736;23.346;2023-01-27T03:23:07;94636.59;;;1.30;100.00
20624;BME280;10471;42.736;23.346;2023-01-27T03:25:32;94643.22;;;1.22;100.00
20624;BME280;10471;42.736;23.346;2023-01-27T03:27:58;94632.28;;;1.20;100.00
20624;BME280;10471;42.736;23.346;2023-01-27T03:30:24;94629.75;;;1.25;100.00
20624;BME280;10471;42.736;23.346;2023-01-27T03:32:50;94637.31;;;1.26;100.00
20624;BME280;10471;42.736;23.346;2023-01-27T03:35:15;94622.13;;;1.34;100.00
20624;BME280;10471;42.736;23.346;2023-01-27T03:37:41;94615.84;;;1.30;100.00
20624;BME280;10471;42.736;23.346;2023-01-27T03:40:26;94605.47;;;1.30;100.00
20624;BME280;10471;42.736;23.346;2023-01-27T03:43:10;94603.25;;;1.23;100.00
20624;BME280;10471;42.736;23.346;2023-01-27T03:45:55;94601.16;;;1.20;100.00
20624;BME280;10471;42.736;23.346;2023-01-27T03:48:39;94583.94;;;1.14;100.00
20624;BME280;10471;42.736;23.346;2023-01-27T03:51:06;94595.81;;;1.10;100.00
20624;BME280;10471;42.736;23.346;2023-01-27T03:53:32;94590.22;;;1.18;100.00
20624;BME280;10471;42.736;23.346;2023-01-27T03:55:58;94599.50;;;1.14;100.00
20624;BME280;10471;42.736;23.346;2023-01-27T03:58:26;94592.06;;;1.01;100.00
20624;BME280;10471;42.736;23.346;2023-01-27T04:00:57;94593.59;;;1.02;100.00
20624;BME280;10471;42.736;23.346;2023-01-27T04:03:25;94592.59;;;1.03;100.00
20624;BME280;10471;42.736;23.346;2023-01-27T04:06:11;94591.31;;;0.89;100.00
20624;BME280;10471;42.736;23.346;2023-01-27T04:08:55;94600.28;;;0.98;100.00
20624;BME280;10471;42.736;23.346;2023-01-27T04:11:21;94627.69;;;0.77;100.00
20624;BME280;10471;42.736;23.346;2023-01-27T04:14:06;94636.34;;;0.83;100.00
20624;BME280;10471;42.736;23.346;2023-01-27T04:16:32;94652.63;;;0.95;100.00
20624;BME280;10471;42.736;23.346;2023-01-27T04:18:58;94659.69;;;0.99;100.00
20624;BME280;10471;42.736;23.346;2023-01-27T04:21:24;94665.50;;;1.06;100.00
20624;BME280;10471;42.736;23.346;2023-01-27T04:23:51;94668.97;;;1.12;100.00
20624;BME280;10471;42.736;23.346;2023-01-27T04:26:17;94658.91;;;1.15;100.00
20624;BME280;10471;42.736;23.346;2023-01-27T04:28:42;94664.75;;;1.22;100.00
20624;BME280;10471;42.736;23.346;2023-01-27T04:31:08;94667.19;;;1.28;100.00
20624;BME280;10471;42.736;23.346;2023-01-27T04:33:33;94670.66;;;1.34;100.00
20624;BME280;10471;42.736;23.346;2023-01-27T04:35:59;94681.72;;;1.29;100.00
20624;BME280;10471;42.736;23.346;2023-01-27T04:38:24;94690.59;;;1.33;100.00
20624;BME280;10471;42.736;23.346;2023-01-27T04:40:49;94699.97;;;1.34;100.00
20624;BME280;10471;42.736;23.346;2023-01-27T04:43:15;94681.72;;;1.46;100.00
20624;BME280;10471;42.736;23.346;2023-01-27T04:45:40;94679.84;;;1.41;100.00
20624;BME280;10471;42.736;23.346;2023-01-27T04:48:05;94687.72;;;1.46;100.00
20624;BME280;10471;42.736;23.346;2023-01-27T04:50:31;94692.41;;;1.49;100.00
20624;BME280;10471;42.736;23.346;2023-01-27T04:52:57;94677.94;;;1.53;100.00
20624;BME280;10471;42.736;23.346;2023-01-27T04:55:23;94677.41;;;1.51;100.00
20624;BME280;10471;42.736;23.346;2023-01-27T04:57:48;94692.50;;;1.54;100.00
20624;BME280;10471;42.736;23.346;2023-01-27T05:00:14;94696.59;;;1.50;100.00
20624;BME280;10471;42.736;23.346;2023-01-27T05:02:40;94698.63;;;1.48;100.00
20624;BME280;10471;42.736;23.346;2023-01-27T05:05:05;94686.13;;;1.45;100.00
20624;BME280;10471;42.736;23.346;2023-01-27T05:07:31;94688.34;;;1.37;100.00
20624;BME280;10471;42.736;23.346;2023-01-27T05:09:57;94696.34;;;1.35;100.00
20624;BME280;10471;42.736;23.346;2023-01-27T05:12:22;94686.91;;;1.29;100.00
20624;BME280;10471;42.736;23.346;2023-01-27T05:14:47;94670.72;;;1.23;100.00
20624;BME280;10471;42.736;23.346;2023-01-27T05:17:13;94679.97;;;1.19;100.00
20624;BME280;10471;42.736;23.346;2023-01-27T05:19:38;94678.41;;;1.18;100.00
20624;BME280;10471;42.736;23.346;2023-01-27T05:22:04;94670.53;;;1.13;100.00
20624;BME280;10471;42.736;23.346;2023-01-27T05:24:29;94680.59;;;1.09;100.00
20624;BME280;10471;42.736;23.346;2023-01-27T05:26:54;94683.72;;;0.95;100.00
20624;BME280;10471;42.736;23.346;2023-01-27T05:29:20;94671.97;;;1.04;100.00
20624;BME280;10471;42.736;23.346;2023-01-27T05:31:45;94668.78;;;1.02;100.00
20624;BME280;10471;42.736;23.346;2023-01-27T05:34:10;94666.13;;;0.97;100.00
20624;BME280;10471;42.736;23.346;2023-01-27T05:36:36;94655.97;;;0.79;100.00
20624;BME280;10471;42.736;23.346;2023-01-27T05:39:01;94654.47;;;0.83;100.00
20624;BME280;10471;42.736;23.346;2023-01-27T05:41:28;94653.06;;;0.75;100.00
20624;BME280;10471;42.736;23.346;2023-01-27T05:43:55;94643.94;;;0.73;100.00
20624;BME280;10471;42.736;23.346;2023-01-27T05:46:23;94633.19;;;0.81;100.00
20624;BME280;10471;42.736;23.346;2023-01-27T05:48:51;94630.22;;;0.61;100.00
20624;BME280;10471;42.736;23.346;2023-01-27T05:51:18;94635.31;;;0.56;100.00
20624;BME280;10471;42.736;23.346;2023-01-27T05:53:45;94632.84;;;0.33;100.00
20624;BME280;10471;42.736;23.346;2023-01-27T05:56:12;94644.22;;;0.32;100.00
20624;BME280;10471;42.736;23.346;2023-01-27T05:58:38;94656.34;;;0.32;100.00
20624;BME280;10471;42.736;23.346;2023-01-27T06:03:33;94648.69;;;0.37;100.00
20624;BME280;10471;42.736;23.346;2023-01-27T06:05:58;94655.31;;;0.44;100.00
20624;BME280;10471;42.736;23.346;2023-01-27T06:08:25;94665.06;;;0.54;100.00
20624;BME280;10471;42.736;23.346;2023-01-27T06:10:51;94665.41;;;0.57;100.00
20624;BME280;10471;42.736;23.346;2023-01-27T06:13:18;94661.00;;;0.58;100.00
20624;BME280;10471;42.736;23.346;2023-01-27T06:15:46;94652.06;;;0.65;100.00
20624;BME280;10471;42.736;23.346;2023-01-27T06:18:12;94653.78;;;0.60;100.00
20624;BME280;10471;42.736;23.346;2023-01-27T06:20:37;94659.63;;;0.66;100.00
20624;BME280;10471;42.736;23.346;2023-01-27T06:23:04;94667.16;;;0.68;100.00
20624;BME280;10471;42.736;23.346;2023-01-27T06:25:30;94668.56;;;0.59;100.00
20624;BME280;10471;42.736;23.346;2023-01-27T06:27:56;94667.31;;;0.62;100.00
20624;BME280;10471;42.736;23.346;2023-01-27T06:30:22;94669.00;;;0.56;100.00
20624;BME280;10471;42.736;23.346;2023-01-27T06:32:48;94668.25;;;0.56;100.00
20624;BME280;10471;42.736;23.346;2023-01-27T06:35:13;94670.03;;;0.55;100.00
20624;BME280;10471;42.736;23.346;2023-01-27T06:37:39;94660.22;;;0.57;100.00
20624;BME280;10471;42.736;23.346;2023-01-27T06:40:05;94662.34;;;0.60;100.00
20624;BME280;10471;42.736;23.346;2023-01-27T06:42:30;94669.31;;;0.43;100.00
20624;BME280;10471;42.736;23.346;2023-01-27T06:44:55;94677.59;;;0.45;100.00
20624;BME280;10471;42.736;23.346;2023-01-27T06:47:21;94677.78;;;0.55;100.00
20624;BME280;10471;42.736;23.346;2023-01-27T06:49:46;94683.94;;;0.49;100.00
20624;BME280;10471;42.736;23.346;2023-01-27T06:52:11;94679.66;;;0.43;100.00
20624;BME280;10471;42.736;23.346;2023-01-27T06:54:37;94683.34;;;0.47;100.00
20624;BME280;10471;42.736;23.346;2023-01-27T06:57:02;94687.19;;;0.45;100.00
20624;BME280;10471;42.736;23.346;2023-01-27T06:59:28;94686.97;;;0.46;100.00
20624;BME280;10471;42.736;23.346;2023-01-27T07:01:53;94691.78;;;0.54;100.00
20624;BME280;10471;42.736;23.346;2023-01-27T07:04:18;94692.34;;;0.56;100.00
20624;BME280;10471;42.736;23.346;2023-01-27T07:06:44;94694.78;;;0.63;100.00
20624;BME280;10471;42.736;23.346;2023-01-27T07:09:09;94694.66;;;0.69;100.00
20624;BME280;10471;42.736;23.346;2023-01-27T07:11:35;94696.97;;;0.82;100.00
20624;BME280;10471;42.736;23.346;2023-01-27T07:14:01;94696.72;;;0.83;100.00
20624;BME280;10471;42.736;23.346;2023-01-27T07:16:27;94695.97;;;0.99;100.00
20624;BME280;10471;42.736;23.346;2023-01-27T07:18:52;94691.78;;;1.10;100.00
20624;BME280;10471;42.736;23.346;2023-01-27T07:21:17;94689.69;;;0.95;100.00
20624;BME280;10471;42.736;23.346;2023-01-27T07:23:43;94695.22;;;0.99;100.00
20624;BME280;10471;42.736;23.346;2023-01-27T07:26:08;94698.41;;;0.89;100.00
20624;BME280;10471;42.736;23.346;2023-01-27T07:28:34;94694.38;;;0.82;100.00
20624;BME280;10471;42.736;23.346;2023-01-27T07:31:00;94708.09;;;0.94;100.00
20624;BME280;10471;42.736;23.346;2023-01-27T07:33:26;94702.41;;;0.97;100.00
20624;BME280;10471;42.736;23.346;2023-01-27T07:35:52;94695.38;;;1.09;100.00
20624;BME280;10471;42.736;23.346;2023-01-27T07:38:18;94704.06;;;1.30;100.00
20624;BME280;10471;42.736;23.346;2023-01-27T07:40:43;94711.94;;;1.35;100.00
20624;BME280;10471;42.736;23.346;2023-01-27T07:43:09;94711.13;;;1.35;100.00
20624;BME280;10471;42.736;23.346;2023-01-27T07:45:35;94709.84;;;1.05;100.00
20624;BME280;10471;42.736;23.346;2023-01-27T07:48:02;94712.53;;;1.10;100.00
20624;BME280;10471;42.736;23.346;2023-01-27T07:50:27;94717.88;;;1.20;100.00
20624;BME280;10471;42.736;23.346;2023-01-27T07:52:53;94715.38;;;1.25;100.00
20624;BME280;10471;42.736;23.346;2023-01-27T07:55:18;94708.09;;;1.10;100.00
20624;BME280;10471;42.736;23.346;2023-01-27T07:57:43;94714.78;;;1.06;100.00
20624;BME280;10471;42.736;23.346;2023-01-27T08:00:09;94715.19;;;1.15;100.00
20624;BME280;10471;42.736;23.346;2023-01-27T08:02:39;94715.25;;;1.03;100.00
20624;BME280;10471;42.736;23.346;2023-01-27T08:05:05;94716.13;;;1.09;100.00
20624;BME280;10471;42.736;23.346;2023-01-27T08:07:31;94711.03;;;1.14;100.00
20624;BME280;10471;42.736;23.346;2023-01-27T08:09:56;94715.19;;;1.15;100.00
20624;BME280;10471;42.736;23.346;2023-01-27T08:12:22;94715.38;;;1.25;100.00
20624;BME280;10471;42.736;23.346;2023-01-27T08:14:47;94714.19;;;1.32;100.00
20624;BME280;10471;42.736;23.346;2023-01-27T08:17:12;94718.91;;;1.35;100.00
20624;BME280;10471;42.736;23.346;2023-01-27T08:19:38;94715.69;;;1.44;100.00
20624;BME280;10471;42.736;23.346;2023-01-27T08:22:03;94714.69;;;1.45;100.00
20624;BME280;10471;42.736;23.346;2023-01-27T08:24:28;94712.41;;;1.65;100.00
20624;BME280;10471;42.736;23.346;2023-01-27T08:26:54;94711.28;;;1.28;100.00
20624;BME280;10471;42.736;23.346;2023-01-27T08:29:20;94711.59;;;1.48;100.00
20624;BME280;10471;42.736;23.346;2023-01-27T08:31:45;94721.47;;;1.19;100.00
20624;BME280;10471;42.736;23.346;2023-01-27T08:34:10;94722.91;;;1.10;100.00
20624;BME280;10471;42.736;23.346;2023-01-27T08:36:36;94717.97;;;0.97;100.00
20624;BME280;10471;42.736;23.346;2023-01-27T08:39:04;94715.28;;;0.92;100.00
20624;BME280;10471;42.736;23.346;2023-01-27T08:41:29;94714.00;;;0.78;100.00
20624;BME280;10471;42.736;23.346;2023-01-27T08:43:55;94706.50;;;0.93;100.00
20624;BME280;10471;42.736;23.346;2023-01-27T08:46:20;94718.91;;;0.91;100.00
20624;BME280;10471;42.736;23.346;2023-01-27T08:48:46;94715.13;;;0.82;100.00
20624;BME280;10471;42.736;23.346;2023-01-27T08:51:13;94721.31;;;0.81;100.00
20624;BME280;10471;42.736;23.346;2023-01-27T08:53:39;94724.03;;;0.74;100.00
20624;BME280;10471;42.736;23.346;2023-01-27T08:56:08;94715.59;;;0.79;100.00
20624;BME280;10471;42.736;23.346;2023-01-27T08:58:35;94721.28;;;0.92;100.00
20624;BME280;10471;42.736;23.346;2023-01-27T09:01:02;94719.28;;;0.83;100.00
20624;BME280;10471;42.736;23.346;2023-01-27T09:03:32;94704.00;;;0.98;100.00
20624;BME280;10471;42.736;23.346;2023-01-27T09:05:58;94708.59;;;1.07;100.00
20624;BME280;10471;42.736;23.346;2023-01-27T09:08:24;94714.69;;;1.01;100.00
20624;BME280;10471;42.736;23.346;2023-01-27T09:10:50;94708.44;;;1.14;100.00
20624;BME280;10471;42.736;23.346;2023-01-27T09:13:15;94713.28;;;1.10;100.00
20624;BME280;10471;42.736;23.346;2023-01-27T09:15:42;94711.25;;;1.12;100.00
20624;BME280;10471;42.736;23.346;2023-01-27T09:18:09;94713.91;;;1.01;100.00
20624;BME280;10471;42.736;23.346;2023-01-27T09:20:34;94710.38;;;1.07;100.00
20624;BME280;10471;42.736;23.346;2023-01-27T09:23:02;94712.03;;;1.13;100.00
20624;BME280;10471;42.736;23.346;2023-01-27T09:25:27;94710.34;;;1.18;100.00
20624;BME280;10471;42.736;23.346;2023-01-27T09:27:53;94710.03;;;1.31;100.00
20624;BME280;10471;42.736;23.346;2023-01-27T09:30:20;94700.91;;;1.28;100.00
20624;BME280;10471;42.736;23.346;2023-01-27T09:32:45;94693.53;;;1.37;100.00
20624;BME280;10471;42.736;23.346;2023-01-27T09:35:11;94690.69;;;1.38;100.00
20624;BME280;10471;42.736;23.346;2023-01-27T09:37:57;94690.22;;;1.41;100.00
20624;BME280;10471;42.736;23.346;2023-01-27T09:40:42;94685.97;;;1.35;100.00
20624;BME280;10471;42.736;23.346;2023-01-27T09:48:41;94681.44;;;1.42;100.00
20624;BME280;10471;42.736;23.346;2023-01-27T09:56:48;94676.06;;;1.32;100.00
20624;BME280;10471;42.736;23.346;2023-01-27T10:04:54;94668.97;;;1.12;100.00
20624;BME280;10471;42.736;23.346;2023-01-27T10:10:32;94652.78;;;1.05;100.00
20624;BME280;10471;42.736;23.346;2023-01-27T10:23:33;94647.16;;;1.24;100.00
20624;BME280;10471;42.736;23.346;2023-01-27T10:26:13;94651.84;;;1.11;100.00
20624;BME280;10471;42.736;23.346;2023-01-27T10:28:48;94656.63;;;1.19;100.00
20624;BME280;10471;42.736;23.346;2023-01-27T10:31:20;94657.34;;;1.30;100.00
20624;BME280;10471;42.736;23.346;2023-01-27T10:33:52;94655.78;;;1.29;100.00
20624;BME280;10471;42.736;23.346;2023-01-27T10:39:05;94648.63;;;1.36;100.00
20624;BME280;10471;42.736;23.346;2023-01-27T10:46:29;94645.56;;;1.23;100.00
20624;BME280;10471;42.736;23.346;2023-01-27T10:49:11;94643.22;;;1.22;100.00
20624;BME280;10471;42.736;23.346;2023-01-27T10:51:44;94644.91;;;1.32;100.00
20624;BME280;10471;42.736;23.346;2023-01-27T10:56:52;94641.94;;;1.40;100.00
20624;BME280;10471;42.736;23.346;2023-01-27T10:59:34;94645.38;;;1.46;100.00
20624;BME280;10471;42.736;23.346;2023-01-27T11:02:22;94635.97;;;1.40;100.00
20624;BME280;10471;42.736;23.346;2023-01-27T11:04:58;94631.50;;;1.35;100.00
20624;BME280;10471;42.736;23.346;2023-01-27T11:07:25;94628.81;;;1.47;100.00
20624;BME280;10471;42.736;23.346;2023-01-27T11:10:00;94641.00;;;1.46;100.00
20624;BME280;10471;42.736;23.346;2023-01-27T11:12:39;94636.75;;;1.40;100.00
20624;BME280;10471;42.736;23.346;2023-01-27T11:18:09;94631.31;;;1.58;100.00
20624;BME280;10471;42.736;23.346;2023-01-27T11:20:39;94633.75;;;1.48;100.00
20624;BME280;10471;42.736;23.346;2023-01-27T11:23:17;94636.22;;;1.55;100.00
20624;BME280;10471;42.736;23.346;2023-01-27T11:31:36;94615.69;;;1.37;100.00
20624;BME280;10471;42.736;23.346;2023-01-27T11:36:36;94602.53;;;1.43;100.00
20624;BME280;10471;42.736;23.346;2023-01-27T11:39:01;94606.25;;;1.47;100.00
20624;BME280;10471;42.736;23.346;2023-01-27T11:41:36;94607.28;;;1.46;100.00
20624;BME280;10471;42.736;23.346;2023-01-27T11:44:06;94611.19;;;1.49;100.00
20624;BME280;10471;42.736;23.346;2023-01-27T11:46:36;94617.47;;;1.53;100.00
20624;BME280;10471;42.736;23.346;2023-01-27T11:49:02;94621.16;;;1.73;100.00
20624;BME280;10471;42.736;23.346;2023-01-27T11:51:35;94618.31;;;1.58;100.00
20624;BME280;10471;42.736;23.346;2023-01-27T11:56:34;94610.53;;;1.58;100.00
20624;BME280;10471;42.736;23.346;2023-01-27T11:59:16;94606.22;;;1.64;100.00
20624;BME280;10471;42.736;23.346;2023-01-27T12:10:01;94609.00;;;1.25;100.00
20624;BME280;10471;42.736;23.346;2023-01-27T12:12:27;94607.34;;;1.19;100.00
20624;BME280;10471;42.736;23.346;2023-01-27T12:14:55;94601.94;;;1.20;100.00
20624;BME280;10471;42.736;23.346;2023-01-27T12:17:38;94597.94;;;1.13;100.00
20624;BME280;10471;42.736;23.346;2023-01-27T12:20:16;94598.81;;;1.18;100.00
20624;BME280;10471;42.736;23.346;2023-01-27T12:22:51;94602.97;;;1.03;100.00
20624;BME280;10471;42.736;23.346;2023-01-27T12:25:21;94595.25;;;1.08;100.00
20624;BME280;10471;42.736;23.346;2023-01-27T12:27:54;94595.91;;;1.15;100.00
20624;BME280;10471;42.736;23.346;2023-01-27T12:30:29;94606.41;;;1.25;100.00
20624;BME280;10471;42.736;23.346;2023-01-27T12:32:57;94599.66;;;1.07;100.00
20624;BME280;10471;42.736;23.346;2023-01-27T12:35:28;94605.09;;;1.06;100.00
20624;BME280;10471;42.736;23.346;2023-01-27T12:38:04;94605.94;;;1.27;100.00
20624;BME280;10471;42.736;23.346;2023-01-27T12:40:32;94607.66;;;1.38;100.00
20624;BME280;10471;42.736;23.346;2023-01-27T12:45:33;94615.03;;;1.30;100.00
20624;BME280;10471;42.736;23.346;2023-01-27T12:53:24;94604.75;;;1.19;100.00
20624;BME280;10471;42.736;23.346;2023-01-27T12:59:01;94603.44;;;1.16;100.00
20624;BME280;10471;42.736;23.346;2023-01-27T13:01:37;94596.22;;;1.18;100.00
20624;BME280;10471;42.736;23.346;2023-01-27T13:04:19;94605.25;;;1.16;100.00
20624;BME280;10471;42.736;23.346;2023-01-27T13:09:39;94585.81;;;1.34;100.00
20624;BME280;10471;42.736;23.346;2023-01-27T13:12:15;94588.16;;;1.52;100.00
20624;BME280;10471;42.736;23.346;2023-01-27T13:14:44;94593.34;;;1.52;100.00
20624;BME280;10471;42.736;23.346;2023-01-27T13:17:29;94584.97;;;1.67;100.00
20624;BME280;10471;42.736;23.346;2023-01-27T13:19:59;94593.94;;;1.76;100.00
20624;BME280;10471;42.736;23.346;2023-01-27T13:22:27;94591.19;;;1.66;100.00
20624;BME280;10471;42.736;23.346;2023-01-27T13:24:59;94597.94;;;1.67;100.00
20624;BME280;10471;42.736;23.346;2023-01-27T13:27:31;94590.06;;;1.78;100.00
20624;BME280;10471;42.736;23.346;2023-01-27T13:30:09;94597.06;;;1.78;100.00
20624;BME280;10471;42.736;23.346;2023-01-27T13:32:38;94600.38;;;1.73;100.00
20624;BME280;10471;42.736;23.346;2023-01-27T13:35:23;94605.03;;;1.71;100.00
20624;BME280;10471;42.736;23.346;2023-01-27T13:38:11;94597.66;;;1.85;100.00
20624;BME280;10471;42.736;23.346;2023-01-27T13:40:42;94598.94;;;1.82;100.00
20624;BME280;10471;42.736;23.346;2023-01-27T13:43:30;94604.66;;;1.84;100.00
20624;BME280;10471;42.736;23.346;2023-01-27T13:46:13;94600.63;;;1.93;100.00
20624;BME280;10471;42.736;23.346;2023-01-27T13:48:51;94608.09;;;1.68;100.00
20624;BME280;10471;42.736;23.346;2023-01-27T13:51:21;94601.88;;;1.69;100.00
20624;BME280;10471;42.736;23.346;2023-01-27T13:53:58;94609.66;;;1.69;100.00
20624;BME280;10471;42.736;23.346;2023-01-27T14:07:59;94626.50;;;1.67;100.00
20624;BME280;10471;42.736;23.346;2023-01-27T14:16:15;94630.13;;;1.66;100.00
20624;BME280;10471;42.736;23.346;2023-01-27T14:18:51;94632.81;;;1.54;100.00
20624;BME280;10471;42.736;23.346;2023-01-27T14:35:06;94644.28;;;1.58;100.00
20624;BME280;10471;42.736;23.346;2023-01-27T14:40:20;94649.72;;;1.73;100.00
20624;BME280;10471;42.736;23.346;2023-01-27T14:45:32;94646.13;;;1.41;100.00
20624;BME280;10471;42.736;23.346;2023-01-27T14:51:41;94644.91;;;1.32;100.00
20624;BME280;10471;42.736;23.346;2023-01-27T14:57:10;94656.34;;;1.31;100.00
20624;BME280;10471;42.736;23.346;2023-01-27T14:59:52;94668.34;;;1.37;100.00
20624;BME280;10471;42.736;23.346;2023-01-27T15:02:43;94667.09;;;1.24;100.00
20624;BME280;10471;42.736;23.346;2023-01-27T15:06:19;94664.50;;;1.24;100.00
20624;BME280;10471;42.736;23.346;2023-01-27T15:08:25;94667.66;;;1.26;100.00
20624;BME280;10471;42.736;23.346;2023-01-27T15:11:02;94677.94;;;1.21;100.00